sensor_id;sensor_type;location;lat;lon;timestamp;pressure;altitude;pressure_sealevel;temperature;humidity
51526;BME280;37611;51.794;21.590;2023-09-07T00:00:40;100927.52;;;14.65;100.00
51526;BME280;37611;51.794;21.590;2023-09-07T00:05:01;100924.82;;;14.55;100.00
51526;BME280;37611;51.794;21.590;2023-09-07T00:09:03;100927.83;;;14.41;100.00
51526;BME280;37611;51.794;21.590;2023-09-07T00:13:06;100931.61;;;14.35;100.00
51526;BME280;37611;51.794;21.590;2023-09-07T00:17:08;100931.66;;;14.33;100.00
51526;BME280;37611;51.794;21.590;2023-09-07T00:21:10;100931.74;;;14.30;100.00
51526;BME280;37611;51.794;21.590;2023-09-07T00:25:11;100932.77;;;14.27;100.00
51526;BME280;37611;51.794;21.590;2023-09-07T00:29:13;100929.65;;;14.30;100.00
51526;BME280;37611;51.794;21.590;2023-09-07T00:33:14;100931.89;;;14.34;100.00
51526;BME280;37611;51.794;21.590;2023-09-07T00:37:16;100930.15;;;14.35;100.00
51526;BME280;37611;51.794;21.590;2023-09-07T00:41:18;100926.77;;;14.36;100.00
51526;BME280;37611;51.794;21.590;2023-09-07T00:45:19;100916.89;;;14.37;100.00
51526;BME280;37611;51.794;21.590;2023-09-07T00:49:22;100918.58;;;14.37;100.00
51526;BME280;37611;51.794;21.590;2023-09-07T00:53:24;100921.52;;;14.34;100.00
51526;BME280;37611;51.794;21.590;2023-09-07T00:57:26;100922.61;;;14.33;100.00
51526;BME280;37611;51.794;21.590;2023-09-07T01:01:29;100924.36;;;14.32;100.00
51526;BME280;37611;51.794;21.590;2023-09-07T01:05:43;100926.70;;;14.33;100.00
51526;BME280;37611;51.794;21.590;2023-09-07T01:09:52;100929.85;;;14.33;100.00
51526;BME280;37611;51.794;21.590;2023-09-07T01:13:54;100927.23;;;14.31;100.00
51526;BME280;37611;51.794;21.590;2023-09-07T01:17:57;100928.69;;;14.29;100.00
51526;BME280;37611;51.794;21.590;2023-09-07T01:22:00;100928.48;;;14.26;100.00
51526;BME280;37611;51.794;21.590;2023-09-07T01:26:03;100926.56;;;14.24;100.00
51526;BME280;37611;51.794;21.590;2023-09-07T01:30:05;100922.44;;;14.19;100.00
51526;BME280;37611;51.794;21.590;2023-09-07T01:34:07;100922.31;;;14.13;100.00
51526;BME280;37611;51.794;21.590;2023-09-07T01:38:09;100922.43;;;14.07;100.00
51526;BME280;37611;51.794;21.590;2023-09-07T01:42:11;100924.51;;;14.06;100.00
51526;BME280;37611;51.794;21.590;2023-09-07T01:46:13;100923.34;;;13.98;100.00
51526;BME280;37611;51.794;21.590;2023-09-07T01:50:14;100925.54;;;13.84;100.00
51526;BME280;37611;51.794;21.590;2023-09-07T01:54:16;100931.31;;;13.79;100.00
51526;BME280;37611;51.794;21.590;2023-09-07T01:58:18;100925.89;;;13.77;100.00
51526;BME280;37611;51.794;21.590;2023-09-07T02:02:19;100932.09;;;13.77;100.00
51526;BME280;37611;51.794;21.590;2023-09-07T02:06:21;100930.89;;;13.75;100.00
51526;BME280;37611;51.794;21.590;2023-09-07T02:10:23;100925.64;;;13.74;100.00
51526;BME280;37611;51.794;21.590;2023-09-07T02:14:25;100923.39;;;13.76;100.00
51526;BME280;37611;51.794;21.590;2023-09-07T02:18:26;100921.46;;;13.74;100.00
51526;BME280;37611;51.794;21.590;2023-09-07T02:22:28;100921.61;;;13.72;100.00
51526;BME280;37611;51.794;21.590;2023-09-07T02:26:29;100915.73;;;13.71;100.00
51526;BME280;37611;51.794;21.590;2023-09-07T02:30:31;100915.23;;;13.71;100.00
51526;BME280;37611;51.794;21.590;2023-09-07T02:34:33;100915.55;;;13.69;100.00
51526;BME280;37611;51.794;21.590;2023-09-07T02:38:37;100916.61;;;13.67;100.00
51526;BME280;37611;51.794;21.590;2023-09-07T02:42:39;100919.71;;;13.68;100.00
51526;BME280;37611;51.794;21.590;2023-09-07T02:46:40;100920.16;;;13.65;100.00
51526;BME280;37611;51.794;21.590;2023-09-07T02:50:42;100923.47;;;13.60;100.00
51526;BME280;37611;51.794;21.590;2023-09-07T02:54:46;100923.61;;;13.61;100.00
51526;BME280;37611;51.794;21.590;2023-09-07T02:58:48;100926.67;;;13.60;100.00
51526;BME280;37611;51.794;21.590;2023-09-07T03:02:50;100926.58;;;13.57;100.00
51526;BME280;37611;51.794;21.590;2023-09-07T03:06:51;100927.98;;;13.56;100.00
51526;BME280;37611;51.794;21.590;2023-09-07T03:10:53;100928.46;;;13.52;100.00
51526;BME280;37611;51.794;21.590;2023-09-07T03:14:55;100926.36;;;13.47;100.00
51526;BME280;37611;51.794;21.590;2023-09-07T03:18:56;100925.69;;;13.39;100.00
51526;BME280;37611;51.794;21.590;2023-09-07T03:22:58;100932.45;;;13.37;100.00
51526;BME280;37611;51.794;21.590;2023-09-07T03:27:00;100931.96;;;13.25;100.00
51526;BME280;37611;51.794;21.590;2023-09-07T03:31:02;100936.16;;;13.06;100.00
51526;BME280;37611;51.794;21.590;2023-09-07T03:35:04;100939.20;;;12.91;100.00
51526;BME280;37611;51.794;21.590;2023-09-07T03:39:10;100935.95;;;12.92;100.00
51526;BME280;37611;51.794;21.590;2023-09-07T03:43:12;100936.71;;;12.97;100.00
51526;BME280;37611;51.794;21.590;2023-09-07T03:47:14;100936.72;;;13.03;100.00
51526;BME280;37611;51.794;21.590;2023-09-07T03:51:17;100942.73;;;13.08;100.00
51526;BME280;37611;51.794;21.590;2023-09-07T03:55:18;100943.49;;;13.09;100.00
51526;BME280;37611;51.794;21.590;2023-09-07T03:59:20;100942.20;;;12.99;100.00
51526;BME280;37611;51.794;21.590;2023-09-07T04:03:22;100939.16;;;12.97;100.00
51526;BME280;37611;51.794;21.590;2023-09-07T04:07:23;100938.13;;;12.99;100.00
51526;BME280;37611;51.794;21.590;2023-09-07T04:11:25;100942.70;;;13.01;100.00
51526;BME280;37611;51.794;21.590;2023-09-07T04:15:27;100941.01;;;13.00;100.00
51526;BME280;37611;51.794;21.590;2023-09-07T04:19:30;100941.08;;;13.05;100.00
51526;BME280;37611;51.794;21.590;2023-09-07T04:23:31;100942.77;;;13.04;100.00
51526;BME280;37611;51.794;21.590;2023-09-07T04:27:33;100943.34;;;13.07;100.00
51526;BME280;37611;51.794;21.590;2023-09-07T04:31:35;100944.48;;;13.15;100.00
51526;BME280;37611;51.794;21.590;2023-09-07T04:35:36;100946.48;;;13.22;100.00
51526;BME280;37611;51.794;21.590;2023-09-07T04:39:38;100950.63;;;13.29;100.00
51526;BME280;37611;51.794;21.590;2023-09-07T04:43:42;100953.21;;;13.38;100.00
51526;BME280;37611;51.794;21.590;2023-09-07T04:47:46;100952.23;;;13.53;100.00
51526;BME280;37611;51.794;21.590;2023-09-07T04:51:48;100957.42;;;13.71;100.00
51526;BME280;37611;51.794;21.590;2023-09-07T04:55:50;100955.24;;;14.01;100.00
51526;BME280;37611;51.794;21.590;2023-09-07T04:59:52;100959.56;;;14.30;100.00
51526;BME280;37611;51.794;21.590;2023-09-07T05:03:54;100957.05;;;14.57;100.00
51526;BME280;37611;51.794;21.590;2023-09-07T05:07:56;100962.18;;;14.82;100.00
51526;BME280;37611;51.794;21.590;2023-09-07T05:11:58;100965.48;;;14.99;100.00
51526;BME280;37611;51.794;21.590;2023-09-07T05:16:00;100968.13;;;15.25;100.00
51526;BME280;37611;51.794;21.590;2023-09-07T05:20:02;100969.44;;;15.53;100.00
51526;BME280;37611;51.794;21.590;2023-09-07T05:24:04;100972.05;;;15.79;100.00
51526;BME280;37611;51.794;21.590;2023-09-07T05:28:06;100974.60;;;16.03;100.00
51526;BME280;37611;51.794;21.590;2023-09-07T05:32:09;100975.81;;;16.29;100.00
51526;BME280;37611;51.794;21.590;2023-09-07T05:36:11;100978.66;;;16.57;100.00
51526;BME280;37611;51.794;21.590;2023-09-07T05:40:13;100983.82;;;16.88;100.00
51526;BME280;37611;51.794;21.590;2023-09-07T05:44:14;100985.54;;;17.14;100.00
51526;BME280;37611;51.794;21.590;2023-09-07T05:48:16;100988.43;;;17.38;100.00
51526;BME280;37611;51.794;21.590;2023-09-07T05:52:18;100994.35;;;17.54;100.00
51526;BME280;37611;51.794;21.590;2023-09-07T05:56:20;100998.86;;;17.67;100.00
51526;BME280;37611;51.794;21.590;2023-09-07T06:00:21;101000.31;;;17.87;100.00
51526;BME280;37611;51.794;21.590;2023-09-07T06:04:24;100997.98;;;18.13;100.00
51526;BME280;37611;51.794;21.590;2023-09-07T06:08:26;100998.45;;;18.36;100.00
51526;BME280;37611;51.794;21.590;2023-09-07T06:12:28;100997.10;;;18.54;100.00
51526;BME280;37611;51.794;21.590;2023-09-07T06:16:29;101000.59;;;18.67;100.00
51526;BME280;37611;51.794;21.590;2023-09-07T06:20:31;101001.98;;;18.87;100.00
51526;BME280;37611;51.794;21.590;2023-09-07T06:24:33;101005.75;;;19.12;100.00
51526;BME280;37611;51.794;21.590;2023-09-07T06:28:34;101012.23;;;19.41;100.00
51526;BME280;37611;51.794;21.590;2023-09-07T06:32:36;101019.50;;;19.71;100.00
51526;BME280;37611;51.794;21.590;2023-09-07T06:36:38;101019.12;;;19.92;100.00
51526;BME280;37611;51.794;21.590;2023-09-07T06:40:39;101020.63;;;20.09;99.90
51526;BME280;37611;51.794;21.590;2023-09-07T06:44:41;101023.05;;;20.27;99.19
51526;BME280;37611;51.794;21.590;2023-09-07T06:48:44;101023.11;;;20.44;98.94
51526;BME280;37611;51.794;21.590;2023-09-07T06:52:46;101026.98;;;20.63;98.12
51526;BME280;37611;51.794;21.590;2023-09-07T06:56:48;101028.52;;;20.81;96.65
51526;BME280;37611;51.794;21.590;2023-09-07T07:00:49;101031.63;;;20.96;95.88
51526;BME280;37611;51.794;21.590;2023-09-07T07:04:51;101029.23;;;21.13;95.22
51526;BME280;37611;51.794;21.590;2023-09-07T07:08:53;101029.42;;;21.23;93.86
51526;BME280;37611;51.794;21.590;2023-09-07T07:12:54;101030.11;;;21.33;94.16
51526;BME280;37611;51.794;21.590;2023-09-07T07:16:56;101030.02;;;21.48;93.41
51526;BME280;37611;51.794;21.590;2023-09-07T07:20:58;101030.97;;;21.55;92.24
51526;BME280;37611;51.794;21.590;2023-09-07T07:24:59;101038.41;;;21.56;91.91
51526;BME280;37611;51.794;21.590;2023-09-07T07:29:06;101038.13;;;21.69;91.61
51526;BME280;37611;51.794;21.590;2023-09-07T07:33:09;101040.46;;;21.88;91.13
51526;BME280;37611;51.794;21.590;2023-09-07T07:37:11;101041.13;;;22.01;90.62
51526;BME280;37611;51.794;21.590;2023-09-07T07:41:12;101044.73;;;22.21;90.68
51526;BME280;37611;51.794;21.590;2023-09-07T07:45:14;101046.46;;;22.41;89.85
51526;BME280;37611;51.794;21.590;2023-09-07T07:49:16;101049.81;;;22.62;89.68
51526;BME280;37611;51.794;21.590;2023-09-07T07:53:18;101050.10;;;22.77;88.85
51526;BME280;37611;51.794;21.590;2023-09-07T07:57:19;101055.47;;;22.90;87.20
51526;BME280;37611;51.794;21.590;2023-09-07T08:01:21;101061.33;;;22.99;86.58
51526;BME280;37611;51.794;21.590;2023-09-07T08:05:22;101063.04;;;23.13;86.67
51526;BME280;37611;51.794;21.590;2023-09-07T08:09:24;101066.19;;;23.30;85.44
51526;BME280;37611;51.794;21.590;2023-09-07T08:13:26;101067.34;;;23.47;85.84
51526;BME280;37611;51.794;21.590;2023-09-07T08:17:27;101066.00;;;23.62;85.46
51526;BME280;37611;51.794;21.590;2023-09-07T08:21:29;101065.46;;;23.78;84.29
51526;BME280;37611;51.794;21.590;2023-09-07T08:25:31;101064.22;;;23.90;83.49
51526;BME280;37611;51.794;21.590;2023-09-07T08:29:32;101065.79;;;24.08;82.65
51526;BME280;37611;51.794;21.590;2023-09-07T08:33:34;101063.23;;;24.22;82.56
51526;BME280;37611;51.794;21.590;2023-09-07T08:37:41;101058.34;;;24.39;82.52
51526;BME280;37611;51.794;21.590;2023-09-07T08:41:43;101061.78;;;24.61;82.29
51526;BME280;37611;51.794;21.590;2023-09-07T08:46:09;101060.23;;;24.83;80.86
51526;BME280;37611;51.794;21.590;2023-09-07T08:50:10;101056.40;;;25.05;80.03
51526;BME280;37611;51.794;21.590;2023-09-07T08:54:12;101051.91;;;25.26;79.06
51526;BME280;37611;51.794;21.590;2023-09-07T08:58:14;101055.36;;;25.45;77.98
51526;BME280;37611;51.794;21.590;2023-09-07T09:02:16;101057.31;;;25.63;76.32
51526;BME280;37611;51.794;21.590;2023-09-07T09:06:19;101052.29;;;25.79;75.07
51526;BME280;37611;51.794;21.590;2023-09-07T09:10:21;101047.66;;;25.88;73.50
51526;BME280;37611;51.794;21.590;2023-09-07T09:14:23;101051.71;;;26.01;73.91
51526;BME280;37611;51.794;21.590;2023-09-07T09:18:24;101053.52;;;26.16;72.35
51526;BME280;37611;51.794;21.590;2023-09-07T09:22:28;101050.40;;;26.37;73.15
51526;BME280;37611;51.794;21.590;2023-09-07T09:26:30;101048.77;;;26.68;72.66
51526;BME280;37611;51.794;21.590;2023-09-07T09:30:32;101053.40;;;26.86;69.94
51526;BME280;37611;51.794;21.590;2023-09-07T09:34:35;101048.42;;;26.91;67.18
51526;BME280;37611;51.794;21.590;2023-09-07T09:38:37;101046.30;;;27.08;66.28
51526;BME280;37611;51.794;21.590;2023-09-07T09:42:41;101047.81;;;27.27;66.56
51526;BME280;37611;51.794;21.590;2023-09-07T09:46:43;101046.06;;;27.32;64.71
51526;BME280;37611;51.794;21.590;2023-09-07T09:50:47;101041.25;;;27.46;65.37
51526;BME280;37611;51.794;21.590;2023-09-07T09:54:51;101043.11;;;27.42;63.33
51526;BME280;37611;51.794;21.590;2023-09-07T09:58:53;101038.84;;;27.50;64.04
51526;BME280;37611;51.794;21.590;2023-09-07T10:03:02;101039.20;;;27.78;64.69
51526;BME280;37611;51.794;21.590;2023-09-07T10:07:05;101037.95;;;28.00;63.35
51526;BME280;37611;51.794;21.590;2023-09-07T10:11:08;101041.38;;;28.17;63.25
51526;BME280;37611;51.794;21.590;2023-09-07T10:15:23;101040.85;;;28.36;62.17
51526;BME280;37611;51.794;21.590;2023-09-07T10:19:25;101039.12;;;28.45;61.11
51526;BME280;37611;51.794;21.590;2023-09-07T10:23:41;101035.26;;;28.50;60.45
51526;BME280;37611;51.794;21.590;2023-09-07T10:27:43;101036.54;;;28.70;59.94
51526;BME280;37611;51.794;21.590;2023-09-07T10:31:51;101040.04;;;28.52;57.70
51526;BME280;37611;51.794;21.590;2023-09-07T10:35:52;101034.99;;;28.10;58.56
51526;BME280;37611;51.794;21.590;2023-09-07T10:39:54;101029.73;;;28.09;58.80
51526;BME280;37611;51.794;21.590;2023-09-07T10:43:57;101031.42;;;28.19;58.50
51526;BME280;37611;51.794;21.590;2023-09-07T10:47:59;101030.16;;;28.12;56.71
51526;BME280;37611;51.794;21.590;2023-09-07T10:52:00;101025.52;;;28.10;57.11
51526;BME280;37611;51.794;21.590;2023-09-07T10:56:05;101023.13;;;28.22;57.44
51526;BME280;37611;51.794;21.590;2023-09-07T11:00:07;101018.26;;;28.39;57.38
51526;BME280;37611;51.794;21.590;2023-09-07T11:04:12;101018.07;;;28.40;57.55
51526;BME280;37611;51.794;21.590;2023-09-07T11:08:14;101020.83;;;28.56;57.52
51526;BME280;37611;51.794;21.590;2023-09-07T11:12:15;101013.30;;;28.46;57.31
51526;BME280;37611;51.794;21.590;2023-09-07T11:16:17;101014.90;;;28.44;57.86
51526;BME280;37611;51.794;21.590;2023-09-07T11:20:21;101012.83;;;28.38;57.78
51526;BME280;37611;51.794;21.590;2023-09-07T11:24:23;101010.05;;;28.18;58.22
51526;BME280;37611;51.794;21.590;2023-09-07T11:28:29;101009.95;;;27.96;58.48
51526;BME280;37611;51.794;21.590;2023-09-07T11:32:34;101013.20;;;27.85;59.20
51526;BME280;37611;51.794;21.590;2023-09-07T11:36:36;101009.60;;;27.83;59.42
51526;BME280;37611;51.794;21.590;2023-09-07T11:40:37;101011.80;;;27.74;58.88
51526;BME280;37611;51.794;21.590;2023-09-07T11:44:39;101012.58;;;27.54;57.92
51526;BME280;37611;51.794;21.590;2023-09-07T11:48:41;101009.40;;;27.46;57.31
51526;BME280;37611;51.794;21.590;2023-09-07T11:52:43;101009.55;;;27.46;57.04
51526;BME280;37611;51.794;21.590;2023-09-07T11:56:44;101004.11;;;27.56;56.84
51526;BME280;37611;51.794;21.590;2023-09-07T12:00:47;101002.20;;;27.65;57.22
51526;BME280;37611;51.794;21.590;2023-09-07T12:04:48;101003.10;;;27.50;56.98
51526;BME280;37611;51.794;21.590;2023-09-07T12:09:04;101000.48;;;27.12;57.08
51526;BME280;37611;51.794;21.590;2023-09-07T12:13:06;100997.92;;;26.70;58.13
51526;BME280;37611;51.794;21.590;2023-09-07T12:17:08;100996.52;;;26.56;59.12
51526;BME280;37611;51.794;21.590;2023-09-07T12:21:09;100995.80;;;26.57;59.52
51526;BME280;37611;51.794;21.590;2023-09-07T12:25:11;100993.15;;;26.69;60.07
51526;BME280;37611;51.794;21.590;2023-09-07T12:29:13;100990.02;;;26.86;59.84
51526;BME280;37611;51.794;21.590;2023-09-07T12:33:15;100989.81;;;26.88;58.32
51526;BME280;37611;51.794;21.590;2023-09-07T12:37:16;100988.30;;;26.94;57.30
51526;BME280;37611;51.794;21.590;2023-09-07T12:41:18;100980.99;;;27.08;56.23
51526;BME280;37611;51.794;21.590;2023-09-07T12:45:20;100978.33;;;27.17;55.85
51526;BME280;37611;51.794;21.590;2023-09-07T12:49:22;100978.41;;;27.32;55.14
51526;BME280;37611;51.794;21.590;2023-09-07T12:53:23;100979.27;;;27.37;54.57
51526;BME280;37611;51.794;21.590;2023-09-07T12:57:28;100970.22;;;27.44;53.94
51526;BME280;37611;51.794;21.590;2023-09-07T13:01:29;100971.70;;;27.58;53.23
51526;BME280;37611;51.794;21.590;2023-09-07T13:05:33;100970.23;;;27.60;53.12
51526;BME280;37611;51.794;21.590;2023-09-07T13:09:34;100969.04;;;27.60;53.99
51526;BME280;37611;51.794;21.590;2023-09-07T13:13:36;100968.91;;;27.48;55.50
51526;BME280;37611;51.794;21.590;2023-09-07T13:17:37;100966.83;;;27.23;56.43
51526;BME280;37611;51.794;21.590;2023-09-07T13:21:39;100958.58;;;26.95;57.29
51526;BME280;37611;51.794;21.590;2023-09-07T13:25:41;100955.43;;;26.75;58.34
51526;BME280;37611;51.794;21.590;2023-09-07T13:29:43;100955.86;;;26.60;59.06
51526;BME280;37611;51.794;21.590;2023-09-07T13:33:44;100957.21;;;26.39;59.94
51526;BME280;37611;51.794;21.590;2023-09-07T13:37:46;100956.66;;;26.22;60.34
51526;BME280;37611;51.794;21.590;2023-09-07T13:41:48;100951.90;;;26.08;61.19
51526;BME280;37611;51.794;21.590;2023-09-07T13:45:49;100949.36;;;26.01;61.63
51526;BME280;37611;51.794;21.590;2023-09-07T13:49:51;100943.48;;;25.95;62.09
51526;BME280;37611;51.794;21.590;2023-09-07T13:53:53;100938.59;;;25.93;62.62
51526;BME280;37611;51.794;21.590;2023-09-07T13:57:54;100933.09;;;25.92;62.60
51526;BME280;37611;51.794;21.590;2023-09-07T14:01:56;100932.54;;;25.96;61.81
51526;BME280;37611;51.794;21.590;2023-09-07T14:05:58;100931.70;;;25.99;61.45
51526;BME280;37611;51.794;21.590;2023-09-07T14:10:00;100924.88;;;26.02;61.77
51526;BME280;37611;51.794;21.590;2023-09-07T14:14:02;100919.86;;;26.08;61.14
51526;BME280;37611;51.794;21.590;2023-09-07T14:18:04;100918.19;;;26.12;59.95
51526;BME280;37611;51.794;21.590;2023-09-07T14:22:06;100910.61;;;26.15;59.56
51526;BME280;37611;51.794;21.590;2023-09-07T14:26:08;100907.57;;;26.16;58.84
51526;BME280;37611;51.794;21.590;2023-09-07T14:30:10;100904.28;;;26.14;58.93
51526;BME280;37611;51.794;21.590;2023-09-07T14:34:13;100904.60;;;26.14;58.50
51526;BME280;37611;51.794;21.590;2023-09-07T14:38:14;100903.96;;;26.12;59.17
51526;BME280;37611;51.794;21.590;2023-09-07T14:42:16;100901.42;;;26.12;59.65
51526;BME280;37611;51.794;21.590;2023-09-07T14:46:21;100899.08;;;26.15;59.52
51526;BME280;37611;51.794;21.590;2023-09-07T14:50:24;100898.13;;;26.18;58.80
51526;BME280;37611;51.794;21.590;2023-09-07T14:54:27;100898.34;;;26.18;58.45
51526;BME280;37611;51.794;21.590;2023-09-07T14:58:29;100898.96;;;26.20;58.62
51526;BME280;37611;51.794;21.590;2023-09-07T15:02:33;100899.47;;;26.22;58.37
51526;BME280;37611;51.794;21.590;2023-09-07T15:06:41;100894.92;;;26.26;58.41
51526;BME280;37611;51.794;21.590;2023-09-07T15:10:43;100890.09;;;26.26;58.39
51526;BME280;37611;51.794;21.590;2023-09-07T15:14:44;100886.15;;;26.26;58.49
51526;BME280;37611;51.794;21.590;2023-09-07T15:18:46;100886.36;;;26.23;59.44
51526;BME280;37611;51.794;21.590;2023-09-07T15:22:48;100886.30;;;26.19;59.88
51526;BME280;37611;51.794;21.590;2023-09-07T15:26:49;100889.52;;;26.11;60.29
51526;BME280;37611;51.794;21.590;2023-09-07T15:30:51;100888.61;;;26.03;60.61
51526;BME280;37611;51.794;21.590;2023-09-07T15:34:53;100886.59;;;25.92;60.81
51526;BME280;37611;51.794;21.590;2023-09-07T15:38:54;100885.10;;;25.84;60.92
51526;BME280;37611;51.794;21.590;2023-09-07T15:42:56;100884.59;;;25.76;61.17
51526;BME280;37611;51.794;21.590;2023-09-07T15:46:57;100885.05;;;25.67;61.56
51526;BME280;37611;51.794;21.590;2023-09-07T15:50:59;100883.00;;;25.60;61.74
51526;BME280;37611;51.794;21.590;2023-09-07T15:55:01;100884.79;;;25.54;62.08
51526;BME280;37611;51.794;21.590;2023-09-07T15:59:02;100885.07;;;25.49;62.10
51526;BME280;37611;51.794;21.590;2023-09-07T16:03:04;100884.81;;;25.43;62.51
51526;BME280;37611;51.794;21.590;2023-09-07T16:07:06;100881.92;;;25.37;62.42
51526;BME280;37611;51.794;21.590;2023-09-07T16:11:08;100884.70;;;25.31;62.53
51526;BME280;37611;51.794;21.590;2023-09-07T16:15:10;100880.39;;;25.25;62.84
51526;BME280;37611;51.794;21.590;2023-09-07T16:19:11;100883.78;;;25.19;63.16
51526;BME280;37611;51.794;21.590;2023-09-07T16:23:13;100885.92;;;25.12;63.65
51526;BME280;37611;51.794;21.590;2023-09-07T16:27:15;100887.52;;;25.05;63.98
51526;BME280;37611;51.794;21.590;2023-09-07T16:31:16;100887.13;;;24.97;64.55
51526;BME280;37611;51.794;21.590;2023-09-07T16:35:18;100886.98;;;24.88;65.23
51526;BME280;37611;51.794;21.590;2023-09-07T16:39:19;100884.73;;;24.79;66.23
51526;BME280;37611;51.794;21.590;2023-09-07T16:43:21;100884.64;;;24.69;67.40
51526;BME280;37611;51.794;21.590;2023-09-07T16:47:25;100885.95;;;24.55;68.71
51526;BME280;37611;51.794;21.590;2023-09-07T16:51:27;100887.23;;;24.40;69.40
51526;BME280;37611;51.794;21.590;2023-09-07T16:55:29;100890.22;;;24.20;70.01
51526;BME280;37611;51.794;21.590;2023-09-07T16:59:30;100889.25;;;24.03;70.67
51526;BME280;37611;51.794;21.590;2023-09-07T17:03:32;100893.47;;;23.90;71.31
51526;BME280;37611;51.794;21.590;2023-09-07T17:07:34;100894.24;;;23.74;72.18
51526;BME280;37611;51.794;21.590;2023-09-07T17:11:36;100899.35;;;23.60;73.30
51526;BME280;37611;51.794;21.590;2023-09-07T17:15:38;100903.02;;;23.45;74.32
51526;BME280;37611;51.794;21.590;2023-09-07T17:19:40;100901.34;;;23.28;74.96
51526;BME280;37611;51.794;21.590;2023-09-07T17:23:42;100902.08;;;23.11;75.95
51526;BME280;37611;51.794;21.590;2023-09-07T17:27:44;100904.84;;;22.93;76.76
51526;BME280;37611;51.794;21.590;2023-09-07T17:31:46;100905.25;;;22.76;77.54
51526;BME280;37611;51.794;21.590;2023-09-07T17:35:48;100907.46;;;22.61;78.11
51526;BME280;37611;51.794;21.590;2023-09-07T17:39:49;100908.02;;;22.45;78.65
51526;BME280;37611;51.794;21.590;2023-09-07T17:43:52;100919.17;;;22.29;78.96
51526;BME280;37611;51.794;21.590;2023-09-07T17:47:54;100920.44;;;22.15;80.15
51526;BME280;37611;51.794;21.590;2023-09-07T17:51:56;100924.40;;;22.04;80.26
51526;BME280;37611;51.794;21.590;2023-09-07T17:55:58;100923.43;;;21.92;80.40
51526;BME280;37611;51.794;21.590;2023-09-07T17:59:59;100923.30;;;21.83;80.58
51526;BME280;37611;51.794;21.590;2023-09-07T18:04:01;100920.66;;;21.74;80.87
51526;BME280;37611;51.794;21.590;2023-09-07T18:08:03;100919.70;;;21.66;81.20
51526;BME280;37611;51.794;21.590;2023-09-07T18:12:05;100920.41;;;21.59;81.57
51526;BME280;37611;51.794;21.590;2023-09-07T18:16:07;100920.31;;;21.53;81.66
51526;BME280;37611;51.794;21.590;2023-09-07T18:20:09;100922.16;;;21.45;82.11
51526;BME280;37611;51.794;21.590;2023-09-07T18:24:11;100923.34;;;21.38;82.62
51526;BME280;37611;51.794;21.590;2023-09-07T18:28:13;100923.27;;;21.33;83.20
51526;BME280;37611;51.794;21.590;2023-09-07T18:32:15;100927.62;;;21.22;83.49
51526;BME280;37611;51.794;21.590;2023-09-07T18:36:16;100930.21;;;21.12;83.57
51526;BME280;37611;51.794;21.590;2023-09-07T18:40:19;100934.94;;;21.03;83.87
51526;BME280;37611;51.794;21.590;2023-09-07T18:44:20;100935.58;;;20.91;84.48
51526;BME280;37611;51.794;21.590;2023-09-07T18:48:22;100934.77;;;20.82;85.04
51526;BME280;37611;51.794;21.590;2023-09-07T18:52:24;100931.56;;;20.74;85.36
51526;BME280;37611;51.794;21.590;2023-09-07T18:56:25;100932.86;;;20.65;85.51
51526;BME280;37611;51.794;21.590;2023-09-07T19:00:28;100931.25;;;20.58;86.12
51526;BME280;37611;51.794;21.590;2023-09-07T19:04:30;100933.82;;;20.55;86.47
51526;BME280;37611;51.794;21.590;2023-09-07T19:08:34;100939.08;;;20.51;86.95
51526;BME280;37611;51.794;21.590;2023-09-07T19:12:36;100938.77;;;20.44;86.99
51526;BME280;37611;51.794;21.590;2023-09-07T19:16:37;100942.91;;;20.35;87.27
51526;BME280;37611;51.794;21.590;2023-09-07T19:20:39;100941.09;;;20.27;87.53
51526;BME280;37611;51.794;21.590;2023-09-07T19:24:40;100943.42;;;20.18;87.92
51526;BME280;37611;51.794;21.590;2023-09-07T19:28:42;100942.88;;;20.08;87.95
51526;BME280;37611;51.794;21.590;2023-09-07T19:32:44;100942.34;;;20.02;88.39
51526;BME280;37611;51.794;21.590;2023-09-07T19:36:45;100941.86;;;20.02;88.88
51526;BME280;37611;51.794;21.590;2023-09-07T19:40:47;100945.88;;;20.01;88.77
51526;BME280;37611;51.794;21.590;2023-09-07T19:44:49;100948.63;;;19.99;89.02
51526;BME280;37611;51.794;21.590;2023-09-07T19:48:50;100946.91;;;19.95;88.97
51526;BME280;37611;51.794;21.590;2023-09-07T19:52:52;100947.52;;;19.91;88.89
51526;BME280;37611;51.794;21.590;2023-09-07T19:56:54;100950.44;;;19.83;89.05
51526;BME280;37611;51.794;21.590;2023-09-07T20:00:57;100948.58;;;19.74;89.09
51526;BME280;37611;51.794;21.590;2023-09-07T20:04:59;100949.52;;;19.66;89.58
51526;BME280;37611;51.794;21.590;2023-09-07T20:09:01;100946.13;;;19.63;89.67
51526;BME280;37611;51.794;21.590;2023-09-07T20:13:02;100943.71;;;19.61;89.99
51526;BME280;37611;51.794;21.590;2023-09-07T20:17:04;100950.73;;;19.60;89.99
51526;BME280;37611;51.794;21.590;2023-09-07T20:21:06;100948.14;;;19.55;90.05
51526;BME280;37611;51.794;21.590;2023-09-07T20:25:08;100952.55;;;19.50;90.09
51526;BME280;37611;51.794;21.590;2023-09-07T20:29:10;100955.89;;;19.44;90.42
51526;BME280;37611;51.794;21.590;2023-09-07T20:33:11;100954.27;;;19.40;90.77
51526;BME280;37611;51.794;21.590;2023-09-07T20:37:13;100949.80;;;19.36;90.91
51526;BME280;37611;51.794;21.590;2023-09-07T20:41:15;100948.42;;;19.31;90.86
51526;BME280;37611;51.794;21.590;2023-09-07T20:45:16;100952.18;;;19.29;91.22